Time;durP1;ratioP1;P1;durP2;ratioP2;P2;SDS_P1;SDS_P2;PMS_P1;PMS_P2;Temp;Humidity;BMP_temperature;BMP_pressure;BME280_temperature;BME280_humidity;BME280_pressure;Samples;Min_cycle;Max_cycle;Signal;HPM_P1;HPM_P2
2021/01/20 00:00:10;;;;;;;4.50;3.40;;;2.10;99.80;;;;;;4974047;28;20318;-85
2021/01/20 00:02:38;;;;;;;5.43;3.40;;;2.00;99.80;;;;;;4974283;28;20291;-85
2021/01/20 00:05:06;;;;;;;8.35;4.10;;;2.00;99.80;;;;;;4978011;28;20239;-85
2021/01/20 00:07:33;;;;;;;4.03;3.55;;;2.00;99.80;;;;;;4972371;28;20227;-85
2021/01/20 00:10:01;;;;;;;7.97;3.97;;;2.00;99.80;;;;;;4957812;28;20323;-85
2021/01/20 00:12:28;;;;;;;5.65;3.97;;;1.90;99.80;;;;;;4960957;28;20237;-87
2021/01/20 00:14:55;;;;;;;4.95;3.83;;;1.80;99.80;;;;;;4968169;28;20258;-83
2021/01/20 00:17:22;;;;;;;4.90;3.40;;;1.80;99.80;;;;;;4990003;28;20225;-85
2021/01/20 00:19:49;;;;;;;5.35;3.65;;;1.90;99.80;;;;;;4980838;28;20699;-86
2021/01/20 00:22:16;;;;;;;4.78;3.88;;;1.90;99.80;;;;;;4980416;28;20223;-85
2021/01/20 00:24:43;;;;;;;7.93;4.47;;;1.90;99.80;;;;;;4976901;28;20211;-84
2021/01/20 00:27:12;;;;;;;5.35;3.33;;;2.00;99.80;;;;;;4957887;28;20242;-85
2021/01/20 00:29:39;;;;;;;4.80;3.22;;;2.00;99.80;;;;;;4951698;28;20233;-88
2021/01/20 00:32:06;;;;;;;5.90;3.50;;;2.10;99.80;;;;;;4984519;28;20658;-85
2021/01/20 00:34:34;;;;;;;7.18;3.58;;;2.00;99.80;;;;;;4973809;28;20232;-85
2021/01/20 00:37:01;;;;;;;4.78;3.40;;;2.00;99.80;;;;;;4964673;28;20325;-86
2021/01/20 00:39:28;;;;;;;5.88;3.85;;;2.00;99.80;;;;;;4962994;28;20780;-85
2021/01/20 00:41:55;;;;;;;6.10;3.92;;;2.00;99.80;;;;;;4956668;28;20238;-85
2021/01/20 00:44:23;;;;;;;5.30;3.63;;;2.00;99.80;;;;;;4953878;28;20254;-85
2021/01/20 00:46:50;;;;;;;6.95;3.35;;;2.00;99.80;;;;;;4983188;28;20692;-87
2021/01/20 00:49:17;;;;;;;4.28;3.53;;;2.10;99.80;;;;;;4977921;28;20315;-85
2021/01/20 00:51:46;;;;;;;7.72;3.85;;;2.20;99.80;;;;;;4972722;28;20242;-83
2021/01/20 00:54:13;;;;;;;4.45;3.20;;;2.30;99.80;;;;;;4969793;28;20254;-87
2021/01/20 00:56:40;;;;;;;7.60;3.70;;;2.30;99.80;;;;;;4962432;28;20238;-85
2021/01/20 00:59:07;;;;;;;4.60;3.38;;;2.40;99.80;;;;;;4957516;28;20710;-87
2021/01/20 01:01:36;;;;;;;6.68;3.58;;;2.50;99.80;;;;;;4984345;28;20265;-84
2021/01/20 01:04:03;;;;;;;4.97;3.95;;;2.50;99.80;;;;;;4986190;28;20223;-85
2021/01/20 01:06:30;;;;;;;4.13;3.60;;;2.50;99.80;;;;;;4958871;28;20231;-85
2021/01/20 01:08:57;;;;;;;6.13;3.60;;;2.40;99.80;;;;;;4964212;28;20273;-84
2021/01/20 01:11:24;;;;;;;9.25;3.65;;;2.30;99.80;;;;;;4963122;28;20222;-85
2021/01/20 01:13:51;;;;;;;4.80;3.50;;;2.30;99.80;;;;;;4954450;28;20240;-85
2021/01/20 01:16:18;;;;;;;4.13;3.80;;;2.20;99.80;;;;;;4970724;28;20758;-86
2021/01/20 01:18:46;;;;;;;4.10;3.60;;;2.20;99.80;;;;;;4960074;28;20728;-85
2021/01/20 01:21:13;;;;;;;4.70;4.00;;;2.20;99.80;;;;;;4967743;28;20388;-86
2021/01/20 01:23:40;;;;;;;3.70;3.38;;;2.20;99.80;;;;;;4959684;28;20255;-86
2021/01/20 01:26:07;;;;;;;4.50;3.60;;;2.20;99.80;;;;;;4957177;28;20230;-86
2021/01/20 01:28:34;;;;;;;7.63;3.83;;;2.30;99.80;;;;;;4957504;28;20219;-86
2021/01/20 01:31:01;;;;;;;5.38;3.72;;;2.30;99.80;;;;;;4982145;28;20282;-86
2021/01/20 01:33:31;;;;;;;4.43;3.50;;;2.20;99.80;;;;;;4986328;28;20228;-86
2021/01/20 01:35:59;;;;;;;5.18;3.58;;;2.10;99.80;;;;;;4981836;28;20228;-86
2021/01/20 01:38:26;;;;;;;5.15;3.33;;;2.10;99.80;;;;;;4972140;28;20364;-86
2021/01/20 01:40:53;;;;;;;3.97;3.28;;;2.00;99.80;;;;;;4958152;28;20808;-85
2021/01/20 01:43:20;;;;;;;4.18;3.35;;;2.00;99.80;;;;;;4948840;28;20230;-86
2021/01/20 01:45:47;;;;;;;6.10;3.70;;;2.00;99.80;;;;;;4973390;28;20246;-86
2021/01/20 01:48:14;;;;;;;5.28;3.88;;;2.10;99.80;;;;;;4971109;28;20236;-86
2021/01/20 01:50:42;;;;;;;5.20;3.58;;;2.20;99.80;;;;;;4967616;28;20309;-85
2021/01/20 01:53:13;;;;;;;5.38;4.00;;;2.30;99.80;;;;;;4964102;28;20218;-86
2021/01/20 01:55:40;;;;;;;8.10;4.72;;;2.40;99.80;;;;;;4969934;28;20793;-85
2021/01/20 01:58:07;;;;;;;5.47;3.78;;;2.40;99.80;;;;;;4946144;28;20231;-86
2021/01/20 02:00:36;;;;;;;5.88;3.85;;;2.50;99.80;;;;;;4965870;28;20237;-85
2021/01/20 02:03:03;;;;;;;7.30;4.40;;;2.50;99.80;;;;;;4984566;28;20254;-85
2021/01/20 02:05:30;;;;;;;5.35;4.20;;;2.50;99.80;;;;;;4980154;28;20314;-85
2021/01/20 02:07:58;;;;;;;4.85;3.83;;;2.50;99.80;;;;;;4979474;28;20801;-86
2021/01/20 02:10:26;;;;;;;6.75;3.95;;;2.50;99.80;;;;;;4967575;28;20228;-86
2021/01/20 02:13:25;;;;;;;8.80;4.70;;;2.50;99.80;;;;;;4954599;28;20221;-86
2021/01/20 02:15:58;;;;;;;5.13;3.85;;;2.50;99.80;;;;;;4973483;28;20242;-84
2021/01/20 02:18:29;;;;;;;5.90;3.95;;;2.50;99.80;;;;;;4982456;28;20219;-85
2021/01/20 02:21:16;;;;;;;7.13;4.60;;;2.50;99.80;;;;;;4957735;28;20753;-86
2021/01/20 02:23:44;;;;;;;6.13;4.60;;;2.50;99.80;;;;;;4964229;28;20227;-86
2021/01/20 02:26:23;;;;;;;11.38;4.65;;;2.50;99.80;;;;;;4959857;28;20600;-86
2021/01/20 02:29:18;;;;;;;6.60;4.47;;;2.40;99.80;;;;;;4956886;28;20259;-86
2021/01/20 02:31:47;;;;;;;7.80;4.00;;;2.40;99.80;;;;;;4978881;28;20704;-85
2021/01/20 02:34:19;;;;;;;7.32;3.97;;;2.40;99.80;;;;;;4979262;28;20234;-86
2021/01/20 02:36:47;;;;;;;6.38;4.40;;;2.40;99.80;;;;;;4978927;28;20228;-86
2021/01/20 02:39:16;;;;;;;5.00;4.03;;;2.40;99.80;;;;;;4981041;28;20231;-85
2021/01/20 02:41:43;;;;;;;5.93;4.20;;;2.40;99.80;;;;;;4966674;28;20263;-85
2021/01/20 02:44:10;;;;;;;4.70;3.92;;;2.30;99.80;;;;;;4961963;28;20231;-86
2021/01/20 02:46:38;;;;;;;5.88;4.20;;;2.20;99.80;;;;;;4978273;28;20846;-86
2021/01/20 02:49:06;;;;;;;4.00;3.60;;;2.10;99.80;;;;;;4985049;28;20310;-85
2021/01/20 02:51:48;;;;;;;6.25;3.90;;;2.00;99.80;;;;;;4970943;28;20237;-85
2021/01/20 02:54:16;;;;;;;4.35;3.92;;;2.00;99.80;;;;;;4976146;28;20236;-86
2021/01/20 02:56:48;;;;;;;4.97;4.05;;;2.00;99.80;;;;;;4955974;28;20257;-86
2021/01/20 02:59:17;;;;;;;4.57;3.53;;;2.00;99.80;;;;;;4972430;28;20711;-87
2021/01/20 03:01:49;;;;;;;5.32;4.35;;;2.00;99.80;;;;;;4970919;28;20705;-86
2021/01/20 03:04:18;;;;;;;4.30;3.67;;;2.00;99.80;;;;;;4986680;28;20231;-86
2021/01/20 03:06:47;;;;;;;5.35;3.88;;;1.90;99.80;;;;;;4985854;28;20195;-86
2021/01/20 03:09:15;;;;;;;5.45;4.05;;;1.90;99.80;;;;;;4980871;28;20294;-86
2021/01/20 03:11:47;;;;;;;5.40;3.58;;;1.90;99.80;;;;;;4977843;28;20314;-84
2021/01/20 03:14:16;;;;;;;4.95;3.90;;;1.90;99.80;;;;;;4989507;28;20307;-86
2021/01/20 03:16:46;;;;;;;5.78;4.93;;;1.90;99.80;;;;;;4961752;28;20822;-85
2021/01/20 03:19:13;;;;;;;8.05;4.10;;;1.90;99.80;;;;;;4967212;28;20715;-86
2021/01/20 03:21:41;;;;;;;5.40;3.90;;;1.90;99.80;;;;;;4965836;28;20250;-86
2021/01/20 03:24:08;;;;;;;4.10;3.70;;;1.90;99.80;;;;;;4981277;28;20274;-86
2021/01/20 03:26:35;;;;;;;5.22;4.25;;;2.00;99.80;;;;;;4953601;28;20230;-86
2021/01/20 03:29:02;;;;;;;4.47;3.28;;;2.00;99.80;;;;;;4953276;28;20237;-86
2021/01/20 03:31:29;;;;;;;4.70;3.58;;;2.00;99.80;;;;;;4982274;28;20258;-86
2021/01/20 03:33:57;;;;;;;6.05;3.83;;;2.00;99.80;;;;;;4978868;28;20254;-86
2021/01/20 03:36:25;;;;;;;5.85;3.90;;;2.00;99.80;;;;;;4972163;28;20871;-86
2021/01/20 03:38:54;;;;;;;4.07;3.47;;;2.00;99.80;;;;;;4961809;28;20245;-86
2021/01/20 03:41:21;;;;;;;6.95;4.05;;;2.10;99.80;;;;;;4961906;28;20329;-87
2021/01/20 03:43:48;;;;;;;4.75;3.35;;;2.00;99.80;;;;;;4953593;28;20235;-85
2021/01/20 03:46:15;;;;;;;6.28;4.20;;;2.10;99.80;;;;;;4959441;28;20286;-87
2021/01/20 03:48:42;;;;;;;4.60;3.70;;;2.20;99.80;;;;;;4961932;28;20309;-86
2021/01/20 03:51:09;;;;;;;4.45;3.78;;;2.20;99.80;;;;;;4971025;28;20229;-85
2021/01/20 03:53:36;;;;;;;6.22;4.00;;;2.20;99.80;;;;;;4969278;28;20225;-86
2021/01/20 03:56:05;;;;;;;5.30;3.28;;;2.20;99.80;;;;;;4967931;28;20235;-86
2021/01/20 03:58:31;;;;;;;4.03;3.35;;;2.20;99.80;;;;;;4958066;28;20223;-86
2021/01/20 04:00:58;;;;;;;5.60;3.67;;;2.30;99.80;;;;;;4973335;28;20238;-86
2021/01/20 04:03:26;;;;;;;5.05;3.60;;;2.30;99.80;;;;;;4980861;28;20223;-86
2021/01/20 04:05:53;;;;;;;3.88;3.03;;;2.30;99.80;;;;;;4983427;28;20258;-85
2021/01/20 04:08:22;;;;;;;4.15;3.10;;;2.30;99.80;;;;;;4978102;28;20230;-86
2021/01/20 04:10:49;;;;;;;5.85;3.65;;;2.30;99.80;;;;;;4973991;28;20245;-86
2021/01/20 04:13:17;;;;;;;5.32;3.28;;;2.30;99.80;;;;;;4969214;28;20244;-86
2021/01/20 04:15:44;;;;;;;4.93;4.43;;;2.30;99.80;;;;;;4974461;28;20229;-87
2021/01/20 04:18:11;;;;;;;4.38;3.42;;;2.20;99.80;;;;;;4978447;28;20224;-86
2021/01/20 04:20:39;;;;;;;4.22;3.50;;;2.20;99.80;;;;;;4969668;28;20237;-87
2021/01/20 04:23:06;;;;;;;5.53;3.03;;;2.20;99.80;;;;;;4958129;28;20246;-86
2021/01/20 04:25:33;;;;;;;4.55;3.70;;;2.20;99.80;;;;;;4967077;28;20231;-86
2021/01/20 04:28:00;;;;;;;5.20;3.95;;;2.30;99.80;;;;;;4963001;28;20225;-86
2021/01/20 04:30:28;;;;;;;3.45;3.13;;;2.30;99.80;;;;;;4977273;28;20232;-86
2021/01/20 04:32:55;;;;;;;4.20;3.80;;;2.40;99.80;;;;;;4979205;28;20257;-86
2021/01/20 04:35:23;;;;;;;3.70;3.30;;;2.50;99.80;;;;;;4979352;28;20742;-86
2021/01/20 04:37:50;;;;;;;4.50;3.22;;;2.60;99.80;;;;;;4978688;28;20230;-85
2021/01/20 04:40:17;;;;;;;3.80;3.50;;;2.70;99.80;;;;;;4981164;28;22089;-86
2021/01/20 04:42:45;;;;;;;3.40;3.10;;;2.80;99.80;;;;;;4954136;28;20713;-85
2021/01/20 04:45:12;;;;;;;4.85;3.05;;;2.80;99.80;;;;;;4967945;28;20315;-86
2021/01/20 04:47:42;;;;;;;4.43;3.00;;;2.80;99.80;;;;;;4975759;28;20575;-86
2021/01/20 04:50:12;;;;;;;5.40;3.10;;;2.80;99.80;;;;;;4978725;28;20235;-86
2021/01/20 04:52:46;;;;;;;6.32;3.35;;;2.80;99.80;;;;;;4970767;28;20635;-87
2021/01/20 04:55:14;;;;;;;3.65;3.28;;;2.70;99.80;;;;;;4961812;28;20289;-86
2021/01/20 04:57:41;;;;;;;9.68;3.72;;;2.70;99.80;;;;;;4962700;28;21022;-86
2021/01/20 05:00:09;;;;;;;8.05;3.47;;;2.70;99.80;;;;;;4971351;28;20239;-86
2021/01/20 05:02:37;;;;;;;6.22;4.05;;;2.70;99.80;;;;;;4956304;28;20243;-85
2021/01/20 05:05:07;;;;;;;5.78;3.90;;;2.80;99.80;;;;;;4944227;28;20254;-86
2021/01/20 05:07:35;;;;;;;4.07;3.05;;;2.80;99.80;;;;;;4932637;28;20314;-86
2021/01/20 05:10:02;;;;;;;5.25;3.33;;;2.90;99.80;;;;;;4928305;28;20242;-86
2021/01/20 05:12:40;;;;;;;3.78;3.40;;;2.90;99.80;;;;;;4944236;28;20310;-86
2021/01/20 05:15:09;;;;;;;3.05;2.70;;;3.00;99.80;;;;;;4962761;28;20310;-85
2021/01/20 05:17:37;;;;;;;5.40;3.03;;;3.00;99.80;;;;;;4989542;28;20306;-87
2021/01/20 05:20:06;;;;;;;4.43;3.17;;;3.10;99.80;;;;;;4977497;28;20639;-86
2021/01/20 05:22:33;;;;;;;2.72;2.40;;;3.10;99.80;;;;;;4969379;28;20607;-85
2021/01/20 05:25:04;;;;;;;3.60;2.53;;;3.20;99.80;;;;;;4962816;28;20238;-87
2021/01/20 05:27:32;;;;;;;4.45;3.35;;;3.20;99.80;;;;;;4952865;28;20811;-86
2021/01/20 05:30:04;;;;;;;3.30;3.00;;;3.30;99.80;;;;;;4945701;28;20306;-86
2021/01/20 05:32:31;;;;;;;3.63;2.90;;;3.20;99.80;;;;;;4983119;28;20691;-86
2021/01/20 05:35:01;;;;;;;6.25;3.60;;;3.20;99.80;;;;;;4958544;28;20230;-87
2021/01/20 05:37:29;;;;;;;4.25;3.53;;;3.10;99.80;;;;;;4973224;28;20239;-86
2021/01/20 05:40:10;;;;;;;5.10;3.55;;;3.10;99.80;;;;;;4967931;28;20232;-85
2021/01/20 05:42:49;;;;;;;4.70;3.65;;;3.10;99.80;;;;;;4967189;28;20329;-86
2021/01/20 05:45:18;;;;;;;5.47;4.07;;;3.00;99.80;;;;;;4962834;28;20316;-85
2021/01/20 05:48:01;;;;;;;9.25;3.80;;;3.00;99.80;;;;;;4986082;28;20334;-86
2021/01/20 05:50:29;;;;;;;4.03;3.22;;;3.00;99.80;;;;;;4983939;28;20235;-86
2021/01/20 05:53:08;;;;;;;3.95;3.55;;;3.00;99.80;;;;;;4976278;28;20234;-87
2021/01/20 05:55:36;;;;;;;5.20;3.47;;;3.00;99.80;;;;;;4955231;28;20310;-87
2021/01/20 05:58:04;;;;;;;4.32;3.90;;;3.00;99.80;;;;;;4974003;28;21861;-85
2021/01/20 06:00:32;;;;;;;5.45;3.97;;;3.00;99.80;;;;;;4966235;28;20230;-85
2021/01/20 06:02:59;;;;;;;4.60;3.92;;;3.00;99.80;;;;;;4986956;28;20310;-86
2021/01/20 06:05:28;;;;;;;5.13;3.80;;;2.90;99.80;;;;;;4967835;28;20335;-86
2021/01/20 06:07:55;;;;;;;4.47;4.07;;;2.90;99.80;;;;;;4981883;28;20250;-87
2021/01/20 06:10:24;;;;;;;4.50;4.03;;;2.80;99.80;;;;;;4963533;28;20689;-86
2021/01/20 06:12:53;;;;;;;5.72;4.00;;;2.80;99.80;;;;;;4954567;28;20261;-86
2021/01/20 06:15:23;;;;;;;4.80;3.80;;;2.70;99.80;;;;;;4977769;28;20247;-86
2021/01/20 06:17:53;;;;;;;4.47;4.03;;;2.70;99.80;;;;;;4978172;28;20249;-86
2021/01/20 06:20:23;;;;;;;7.32;4.20;;;2.60;99.80;;;;;;4981516;28;20285;-86
2021/01/20 06:22:53;;;;;;;5.15;4.25;;;2.60;99.80;;;;;;4979584;28;20313;-86
2021/01/20 06:25:29;;;;;;;4.82;4.40;;;2.60;99.80;;;;;;4976203;28;20240;-86
2021/01/20 06:28:02;;;;;;;8.25;3.75;;;2.50;99.80;;;;;;4955151;28;20262;-85
2021/01/20 06:30:34;;;;;;;4.43;4.03;;;2.60;99.80;;;;;;4984705;28;20647;-86
2021/01/20 06:33:06;;;;;;;6.53;4.55;;;2.60;99.80;;;;;;4978404;28;20235;-85
2021/01/20 06:35:42;;;;;;;4.30;3.90;;;2.60;99.80;;;;;;4969846;28;20227;-83
2021/01/20 06:38:34;;;;;;;7.00;4.00;;;2.60;99.80;;;;;;4974633;28;20661;-84
2021/01/20 06:41:05;;;;;;;5.35;3.88;;;2.60;99.80;;;;;;4976605;28;20285;-85
2021/01/20 06:43:37;;;;;;;3.80;3.30;;;2.60;99.80;;;;;;4951879;28;20224;-87
2021/01/20 06:46:26;;;;;;;7.90;3.90;;;2.70;99.80;;;;;;4967567;28;20252;-86
2021/01/20 06:49:10;;;;;;;4.22;3.22;;;2.80;99.80;;;;;;4966136;28;20679;-86
2021/01/20 06:51:40;;;;;;;9.00;3.95;;;2.90;99.80;;;;;;4947050;28;20231;-86
2021/01/20 06:54:14;;;;;;;3.70;3.35;;;2.90;99.80;;;;;;4958524;28;20222;-86
2021/01/20 06:56:45;;;;;;;3.20;2.97;;;3.00;99.80;;;;;;4945152;28;20368;-87
2021/01/20 06:59:24;;;;;;;7.38;3.45;;;3.20;99.80;;;;;;4944533;28;20240;-87
2021/01/20 07:02:12;;;;;;;4.47;3.42;;;3.30;99.80;;;;;;4974149;28;20344;-87
2021/01/20 07:05:03;;;;;;;4.03;3.60;;;3.40;99.80;;;;;;4983465;28;20599;-82
2021/01/20 07:07:53;;;;;;;3.50;3.20;;;3.50;99.80;;;;;;4956635;28;20268;-87
2021/01/20 07:10:26;;;;;;;3.60;3.13;;;3.50;99.80;;;;;;4948172;28;20241;-86
2021/01/20 07:13:20;;;;;;;4.63;3.55;;;3.60;99.80;;;;;;4939048;28;20231;-86
2021/01/20 07:15:54;;;;;;;4.53;3.33;;;3.60;99.80;;;;;;4943244;28;20226;-86
2021/01/20 07:18:25;;;;;;;4.78;3.40;;;3.60;99.80;;;;;;4944104;28;20224;-88
2021/01/20 07:20:54;;;;;;;4.07;2.95;;;3.60;99.80;;;;;;4937238;28;20245;-87
2021/01/20 07:23:22;;;;;;;3.92;3.47;;;3.60;99.80;;;;;;4937932;28;20250;-86
2021/01/20 07:25:53;;;;;;;5.50;3.65;;;3.70;99.80;;;;;;4934550;28;20761;-86
2021/01/20 07:28:23;;;;;;;3.95;3.25;;;3.70;99.80;;;;;;4963377;28;20662;-86
2021/01/20 07:31:02;;;;;;;4.30;3.90;;;3.70;99.80;;;;;;4957458;28;20309;-86
2021/01/20 07:33:29;;;;;;;3.80;3.35;;;3.60;99.80;;;;;;4981883;28;20615;-86
2021/01/20 07:35:57;;;;;;;6.53;4.93;;;3.60;99.80;;;;;;4979914;28;20235;-86
2021/01/20 07:38:32;;;;;;;6.45;3.92;;;3.60;99.80;;;;;;4963556;28;20604;-87
2021/01/20 07:41:11;;;;;;;4.63;3.95;;;3.60;99.80;;;;;;4936637;28;20231;-86
2021/01/20 07:43:39;;;;;;;4.95;4.38;;;3.60;99.80;;;;;;4942350;28;20388;-86
2021/01/20 07:46:14;;;;;;;4.97;3.88;;;3.70;99.80;;;;;;4967783;28;20235;-87
2021/01/20 07:48:41;;;;;;;5.28;3.83;;;3.70;99.80;;;;;;4979305;28;20223;-87
2021/01/20 07:51:15;;;;;;;5.10;4.22;;;3.70;99.80;;;;;;4942778;28;20225;-87
2021/01/20 07:53:54;;;;;;;7.18;3.80;;;3.80;99.80;;;;;;4950597;28;20253;-87
2021/01/20 07:56:22;;;;;;;4.05;3.35;;;3.80;99.80;;;;;;4943909;28;20828;-86
2021/01/20 07:58:50;;;;;;;4.82;3.92;;;3.80;99.80;;;;;;4948288;28;21455;-86
2021/01/20 08:01:27;;;;;;;6.10;3.95;;;3.90;99.80;;;;;;4955226;28;20701;-87
2021/01/20 08:03:56;;;;;;;5.32;3.40;;;3.90;99.80;;;;;;4981809;28;20727;-86
2021/01/20 08:06:23;;;;;;;4.07;3.67;;;4.00;99.80;;;;;;4978103;28;20282;-87
2021/01/20 08:08:52;;;;;;;6.03;4.75;;;4.00;99.80;;;;;;4969721;28;20233;-87
2021/01/20 08:11:20;;;;;;;6.20;5.00;;;4.00;99.80;;;;;;4950760;28;20237;-87
2021/01/20 08:13:50;;;;;;;6.70;4.93;;;4.10;99.80;;;;;;4945922;28;20231;-86
2021/01/20 08:16:18;;;;;;;5.43;4.38;;;4.00;99.80;;;;;;4950806;28;20225;-86
2021/01/20 08:18:47;;;;;;;5.90;4.32;;;4.10;99.80;;;;;;4973097;28;20635;-86
2021/01/20 08:21:14;;;;;;;5.15;4.60;;;4.10;99.80;;;;;;4967818;28;20639;-86
2021/01/20 08:23:53;;;;;;;8.30;4.10;;;4.10;99.80;;;;;;4951174;28;20238;-87
2021/01/20 08:26:27;;;;;;;5.32;3.83;;;4.10;99.80;;;;;;4940949;28;20236;-87
2021/01/20 08:29:09;;;;;;;5.50;3.17;;;4.20;99.80;;;;;;4951388;28;20688;-87
2021/01/20 08:31:37;;;;;;;4.60;4.10;;;4.20;99.80;;;;;;4983526;28;20755;-86
2021/01/20 08:34:17;;;;;;;4.55;3.55;;;4.20;99.80;;;;;;4979265;28;20228;-87
2021/01/20 08:37:07;;;;;;;4.75;3.70;;;4.30;99.80;;;;;;4981009;28;20236;-87
2021/01/20 08:39:36;;;;;;;3.92;3.53;;;4.30;99.80;;;;;;4969590;28;20242;-87
2021/01/20 08:42:21;;;;;;;4.65;4.20;;;4.40;99.80;;;;;;4982256;28;20238;-87
2021/01/20 08:45:13;;;;;;;5.25;3.83;;;4.50;99.80;;;;;;4955122;28;20228;-87
2021/01/20 08:47:46;;;;;;;6.20;4.35;;;4.60;99.80;;;;;;4990266;28;20312;-86
2021/01/20 08:50:14;;;;;;;9.02;4.82;;;4.60;99.80;;;;;;4978337;28;21659;-87
2021/01/20 08:52:45;;;;;;;5.10;4.60;;;4.70;99.80;;;;;;4972693;28;20261;-87
2021/01/20 08:55:21;;;;;;;6.15;4.15;;;4.80;99.80;;;;;;4961625;28;20263;-86
2021/01/20 08:58:08;;;;;;;3.53;3.22;;;4.90;99.80;;;;;;4969526;28;20302;-87
2021/01/20 09:00:43;;;;;;;4.60;3.65;;;4.90;99.80;;;;;;4943770;28;20233;-87
2021/01/20 09:03:17;;;;;;;5.65;4.15;;;5.00;99.80;;;;;;4976514;28;20238;-87
2021/01/20 09:05:45;;;;;;;3.92;3.60;;;5.00;99.80;;;;;;4968166;28;20236;-87
2021/01/20 09:08:13;;;;;;;4.63;3.65;;;5.00;99.80;;;;;;4971045;28;20231;-86
2021/01/20 09:10:40;;;;;;;5.57;3.78;;;5.00;99.80;;;;;;4966708;28;20795;-86
2021/01/20 09:13:08;;;;;;;4.15;3.60;;;5.00;99.80;;;;;;4952989;28;20233;-86
2021/01/20 09:15:37;;;;;;;6.88;4.10;;;5.10;99.80;;;;;;4974566;28;20226;-87
2021/01/20 09:18:06;;;;;;;9.98;3.97;;;5.20;99.80;;;;;;4976787;28;20241;-87
2021/01/20 09:20:34;;;;;;;6.80;4.32;;;5.20;99.80;;;;;;4987928;28;20238;-87
2021/01/20 09:23:01;;;;;;;9.85;4.30;;;5.20;99.80;;;;;;4978862;28;20242;-86
2021/01/20 09:25:29;;;;;;;6.80;3.88;;;5.20;99.80;;;;;;4970550;28;20228;-86
2021/01/20 09:27:56;;;;;;;7.82;3.47;;;5.30;99.80;;;;;;4944130;28;20295;-87
2021/01/20 09:30:23;;;;;;;5.70;4.13;;;5.30;99.80;;;;;;4962765;28;20233;-87
2021/01/20 09:32:50;;;;;;;7.35;3.80;;;5.30;99.80;;;;;;4980695;28;20673;-86
2021/01/20 09:35:19;;;;;;;3.88;3.45;;;5.40;99.80;;;;;;4958522;28;20384;-86
2021/01/20 09:37:48;;;;;;;5.72;4.00;;;5.40;99.80;;;;;;4975452;28;20320;-87
2021/01/20 09:40:16;;;;;;;12.73;9.75;;;5.50;99.80;;;;;;4980084;28;20252;-87
2021/01/20 09:42:47;;;;;;;5.57;4.18;;;5.60;99.80;;;;;;4958046;28;20231;-87
2021/01/20 09:45:15;;;;;;;4.93;3.75;;;5.70;99.80;;;;;;4966435;28;20257;-87
2021/01/20 09:47:44;;;;;;;4.15;3.75;;;5.80;99.80;;;;;;4983477;28;20337;-87
2021/01/20 09:50:14;;;;;;;9.82;5.82;;;5.90;99.80;;;;;;4987044;28;20626;-86
2021/01/20 09:52:43;;;;;;;6.95;4.88;;;6.00;99.80;;;;;;4980318;28;20236;-89
2021/01/20 09:55:11;;;;;;;7.20;4.50;;;6.10;99.80;;;;;;4965251;28;20320;-87
2021/01/20 09:57:39;;;;;;;7.07;5.50;;;6.20;99.80;;;;;;4974829;28;20722;-88
2021/01/20 10:00:08;;;;;;;10.63;6.65;;;6.20;99.80;;;;;;4960148;28;20616;-88
2021/01/20 10:02:35;;;;;;;10.52;6.07;;;6.30;99.80;;;;;;4972730;28;20313;-88
2021/01/20 10:05:02;;;;;;;7.82;4.40;;;6.40;99.80;;;;;;4952681;28;20311;-88
2021/01/20 10:07:29;;;;;;;6.10;4.95;;;6.60;99.80;;;;;;4964514;28;20857;-88
2021/01/20 10:09:57;;;;;;;8.27;3.80;;;6.70;99.40;;;;;;4957695;28;20248;-89
2021/01/20 10:12:24;;;;;;;5.10;4.40;;;6.70;99.80;;;;;;4954085;28;20236;-89
2021/01/20 10:14:51;;;;;;;7.20;4.85;;;6.90;99.60;;;;;;4974991;28;20749;-88
2021/01/20 10:17:19;;;;;;;4.28;3.88;;;6.90;98.80;;;;;;4988802;28;20234;-88
2021/01/20 10:19:46;;;;;;;7.55;4.35;;;7.10;99.00;;;;;;4982693;28;20230;-89
2021/01/20 10:22:15;;;;;;;5.78;4.03;;;7.10;98.70;;;;;;4981155;28;20231;-88
2021/01/20 10:24:42;;;;;;;9.15;4.00;;;7.20;99.70;;;;;;4971403;28;20639;-88
2021/01/20 10:27:10;;;;;;;4.50;3.90;;;7.20;99.10;;;;;;4954813;28;20233;-89
2021/01/20 10:29:37;;;;;;;5.20;3.92;;;7.30;99.70;;;;;;4955725;28;20222;-87
2021/01/20 10:32:05;;;;;;;4.97;3.90;;;7.40;98.50;;;;;;4986400;28;20321;-88
2021/01/20 10:34:32;;;;;;;4.70;3.40;;;7.50;98.50;;;;;;4976208;28;20238;-85
2021/01/20 10:36:59;;;;;;;4.10;3.22;;;7.60;97.40;;;;;;4966491;28;20249;-86
2021/01/20 10:39:26;;;;;;;5.23;3.70;;;7.60;99.00;;;;;;4971977;28;20218;-86
2021/01/20 10:41:55;;;;;;;3.78;3.30;;;7.70;98.70;;;;;;4955975;28;20998;-87
2021/01/20 10:44:23;;;;;;;6.00;3.47;;;7.80;98.30;;;;;;4969229;28;20244;-87
2021/01/20 10:46:50;;;;;;;3.45;3.15;;;7.90;97.80;;;;;;4993634;28;20485;-87
2021/01/20 10:49:17;;;;;;;5.53;3.90;;;7.90;98.10;;;;;;4986843;28;20241;-87
2021/01/20 10:51:44;;;;;;;4.68;4.10;;;7.80;98.10;;;;;;4985673;28;20660;-87
2021/01/20 10:54:11;;;;;;;4.85;4.30;;;7.80;98.20;;;;;;4980886;28;20230;-87
2021/01/20 10:56:40;;;;;;;3.88;3.53;;;7.70;98.30;;;;;;4968893;28;20234;-86
2021/01/20 10:59:07;;;;;;;4.55;3.40;;;7.70;97.80;;;;;;4973282;28;20621;-86
2021/01/20 11:01:35;;;;;;;4.20;3.80;;;7.80;97.90;;;;;;4991548;28;20614;-88
2021/01/20 11:04:02;;;;;;;7.10;4.38;;;7.90;97.80;;;;;;4984971;28;20334;-87
2021/01/20 11:06:29;;;;;;;4.88;4.47;;;8.10;97.50;;;;;;4973415;28;20599;-87
2021/01/20 11:08:59;;;;;;;6.28;4.40;;;8.30;96.40;;;;;;4971466;28;20308;-87
2021/01/20 11:11:26;;;;;;;5.75;4.38;;;8.40;96.40;;;;;;4969657;28;20241;-87
2021/01/20 11:13:54;;;;;;;5.90;4.20;;;8.60;96.90;;;;;;4969078;28;20234;-87
2021/01/20 11:16:21;;;;;;;6.53;4.38;;;8.90;96.80;;;;;;4977744;28;20230;-87
2021/01/20 11:18:50;;;;;;;7.15;3.78;;;9.30;95.20;;;;;;4959869;28;20234;-87
2021/01/20 11:21:17;;;;;;;5.47;4.10;;;9.70;92.00;;;;;;4959667;28;20733;-87
2021/01/20 11:23:45;;;;;;;6.43;4.50;;;10.00;92.20;;;;;;4953955;28;20506;-87
2021/01/20 11:26:13;;;;;;;7.17;4.43;;;10.40;90.30;;;;;;4969145;28;20221;-88
2021/01/20 11:28:40;;;;;;;6.35;4.80;;;10.70;90.00;;;;;;4967835;28;20488;-87
2021/01/20 11:31:07;;;;;;;5.63;3.87;;;11.20;89.10;;;;;;4978068;28;20738;-87
2021/01/20 11:33:37;;;;;;;6.27;4.63;;;11.40;87.80;;;;;;4988749;28;21160;-87
2021/01/20 11:36:06;;;;;;;4.70;4.30;;;11.50;89.10;;;;;;4982037;28;21112;-87
2021/01/20 11:38:34;;;;;;;8.67;4.10;;;11.40;88.30;;;;;;4963515;28;20536;-87
2021/01/20 11:41:01;;;;;;;8.00;4.27;;;11.30;90.20;;;;;;4980273;28;20558;-87
2021/01/20 11:43:28;;;;;;;4.97;4.00;;;11.10;88.00;;;;;;4970164;28;20819;-87
2021/01/20 11:45:55;;;;;;;3.97;3.60;;;10.80;89.40;;;;;;4977925;28;20874;-88
2021/01/20 11:48:23;;;;;;;3.53;2.80;;;10.80;90.80;;;;;;4977606;28;20523;-87
2021/01/20 11:50:50;;;;;;;3.70;3.23;;;10.60;89.90;;;;;;4974951;28;20546;-88
2021/01/20 11:53:24;;;;;;;4.30;3.30;;;10.40;90.30;;;;;;4964706;28;20528;-87
2021/01/20 11:55:52;;;;;;;4.47;3.83;;;10.10;91.40;;;;;;4960030;28;20873;-84
2021/01/20 11:58:19;;;;;;;3.70;2.90;;;9.90;92.70;;;;;;4958453;28;20470;-87
2021/01/20 12:00:48;;;;;;;6.50;3.87;;;9.80;93.90;;;;;;4982340;28;20537;-88
2021/01/20 12:03:15;;;;;;;5.83;3.73;;;9.90;93.30;;;;;;4983806;28;20548;-87
2021/01/20 12:05:43;;;;;;;3.43;2.90;;;10.00;93.20;;;;;;4985547;28;20475;-88
2021/01/20 12:08:13;;;;;;;6.63;3.70;;;10.20;92.30;;;;;;4978270;28;21000;-88
2021/01/20 12:10:41;;;;;;;3.90;3.37;;;10.40;92.00;;;;;;4980246;28;20577;-88
2021/01/20 12:13:08;;;;;;;3.80;3.50;;;10.60;90.80;;;;;;4958517;28;21403;-87
2021/01/20 12:15:35;;;;;;;4.95;4.43;;;10.90;89.60;;;;;;4978802;28;20469;-88
2021/01/20 12:18:08;;;;;;;5.23;4.10;;;11.30;89.00;;;;;;4981001;28;20235;-87
2021/01/20 12:20:36;;;;;;;5.97;4.03;;;11.90;86.70;;;;;;4974133;28;20977;-88
2021/01/20 12:23:05;;;;;;;8.37;4.60;;;13.30;82.90;;;;;;4951596;28;20486;-88
2021/01/20 12:25:32;;;;;;;11.23;6.60;;;15.10;79.70;;;;;;4965112;28;20506;-88
2021/01/20 12:28:00;;;;;;;11.73;6.73;;;16.00;74.70;;;;;;4966875;28;20478;-87
2021/01/20 12:30:27;;;;;;;5.20;3.43;;;16.00;76.20;;;;;;4966935;28;20467;-88
2021/01/20 12:32:54;;;;;;;7.17;3.73;;;15.30;76.00;;;;;;4975280;28;20467;-88
2021/01/20 12:35:21;;;;;;;4.70;3.60;;;13.90;78.90;;;;;;4981547;28;20541;-88
2021/01/20 12:37:58;;;;;;;20.67;5.43;;;12.70;81.20;;;;;;4973050;28;20477;-87
2021/01/20 12:40:26;;;;;;;4.53;4.23;;;11.80;84.40;;;;;;4982057;28;20478;-87
2021/01/20 12:42:53;;;;;;;6.00;3.90;;;11.40;87.70;;;;;;4963339;28;21002;-88
2021/01/20 12:45:21;;;;;;;4.20;3.30;;;11.60;87.10;;;;;;4961699;28;20470;-82
2021/01/20 12:47:48;;;;;;;4.80;4.10;;;11.80;85.70;;;;;;4985575;28;20527;-82
2021/01/20 12:50:15;;;;;;;3.60;3.30;;;11.70;87.30;;;;;;4984108;28;20849;-82
2021/01/20 12:52:42;;;;;;;6.63;3.37;;;11.50;87.10;;;;;;4967798;28;20489;-87
2021/01/20 12:55:10;;;;;;;5.30;4.13;;;11.00;87.10;;;;;;4960290;28;20478;-87
2021/01/20 12:57:37;;;;;;;4.40;3.13;;;10.80;89.30;;;;;;4975185;28;20502;-87
2021/01/20 13:00:06;;;;;;;5.47;3.13;;;10.70;88.20;;;;;;4963236;28;20520;-87
2021/01/20 13:02:33;;;;;;;4.20;3.30;;;10.70;88.50;;;;;;4988910;28;20927;-87
2021/01/20 13:05:01;;;;;;;10.73;3.27;;;10.80;88.60;;;;;;4973162;28;20785;-88
2021/01/20 13:07:28;;;;;;;5.63;3.97;;;10.80;88.50;;;;;;4993632;28;20460;-87